sensor_id;sensor_type;location;lat;lon;timestamp;noise_LAeq;noise_LA_min;noise_LA_max;noise_LA01;noise_LA95
37279;Laerm;7458;49.002;8.472;2024-01-25T00:00:22;60.76;42.09;73.82;;
37279;Laerm;7458;49.002;8.472;2024-01-25T00:02:49;59.04;42.42;73.82;;
37279;Laerm;7458;49.002;8.472;2024-01-25T00:05:15;59.94;41.81;73.70;;
37279;Laerm;7458;49.002;8.472;2024-01-25T00:07:48;57.74;41.96;73.95;;
37279;Laerm;7458;49.002;8.472;2024-01-25T00:10:17;59.68;43.09;73.82;;
37279;Laerm;7458;49.002;8.472;2024-01-25T00:12:43;58.90;41.89;73.99;;
37279;Laerm;7458;49.002;8.472;2024-01-25T00:15:10;59.75;42.71;73.87;;
37279;Laerm;7458;49.002;8.472;2024-01-25T00:17:36;58.23;41.46;74.13;;
37279;Laerm;7458;49.002;8.472;2024-01-25T00:20:03;60.17;41.53;73.84;;
37279;Laerm;7458;49.002;8.472;2024-01-25T00:22:30;58.96;42.09;73.83;;
37279;Laerm;7458;49.002;8.472;2024-01-25T00:24:57;58.98;42.59;74.01;;
37279;Laerm;7458;49.002;8.472;2024-01-25T00:27:23;59.21;41.06;73.86;;
37279;Laerm;7458;49.002;8.472;2024-01-25T00:29:50;59.59;42.71;73.80;;
37279;Laerm;7458;49.002;8.472;2024-01-25T00:32:16;58.92;40.43;73.75;;
37279;Laerm;7458;49.002;8.472;2024-01-25T00:34:42;58.90;41.38;73.89;;
37279;Laerm;7458;49.002;8.472;2024-01-25T00:37:09;59.66;42.16;73.92;;
37279;Laerm;7458;49.002;8.472;2024-01-25T00:39:36;58.43;42.59;73.91;;
37279;Laerm;7458;49.002;8.472;2024-01-25T00:42:05;57.99;42.65;73.89;;
37279;Laerm;7458;49.002;8.472;2024-01-25T00:44:32;59.15;42.22;73.90;;
37279;Laerm;7458;49.002;8.472;2024-01-25T00:46:58;59.57;42.29;73.96;;
37279;Laerm;7458;49.002;8.472;2024-01-25T00:49:24;59.02;42.59;73.90;;
37279;Laerm;7458;49.002;8.472;2024-01-25T00:51:59;59.57;42.03;73.98;;
37279;Laerm;7458;49.002;8.472;2024-01-25T00:54:28;59.19;42.53;73.99;;
37279;Laerm;7458;49.002;8.472;2024-01-25T00:56:54;59.86;41.89;73.97;;
37279;Laerm;7458;49.002;8.472;2024-01-25T00:59:21;60.06;42.76;74.01;;
37279;Laerm;7458;49.002;8.472;2024-01-25T01:01:48;58.54;42.47;74.17;;
37279;Laerm;7458;49.002;8.472;2024-01-25T01:04:14;59.09;43.04;74.18;;
37279;Laerm;7458;49.002;8.472;2024-01-25T01:06:41;59.17;42.41;73.94;;
37279;Laerm;7458;49.002;8.472;2024-01-25T01:09:07;57.36;41.75;74.31;;
37279;Laerm;7458;49.002;8.472;2024-01-25T01:11:33;58.67;41.46;74.07;;
37279;Laerm;7458;49.002;8.472;2024-01-25T01:13:59;58.08;41.89;74.07;;
37279;Laerm;7458;49.002;8.472;2024-01-25T01:16:26;56.25;42.00;73.97;;
37279;Laerm;7458;49.002;8.472;2024-01-25T01:18:51;58.40;42.76;73.96;;
37279;Laerm;7458;49.002;8.472;2024-01-25T01:21:18;58.04;42.22;74.07;;
37279;Laerm;7458;49.002;8.472;2024-01-25T01:23:44;58.99;40.71;74.00;;
37279;Laerm;7458;49.002;8.472;2024-01-25T01:26:11;58.15;43.04;73.97;;
37279;Laerm;7458;49.002;8.472;2024-01-25T01:28:37;59.52;42.47;74.05;;
37279;Laerm;7458;49.002;8.472;2024-01-25T01:31:03;60.04;42.47;74.00;;
37279;Laerm;7458;49.002;8.472;2024-01-25T01:33:29;59.85;42.35;74.00;;
37279;Laerm;7458;49.002;8.472;2024-01-25T01:35:55;60.26;42.65;74.07;;
37279;Laerm;7458;49.002;8.472;2024-01-25T01:38:21;58.97;41.75;74.05;;
37279;Laerm;7458;49.002;8.472;2024-01-25T01:40:47;59.71;43.29;74.10;;
37279;Laerm;7458;49.002;8.472;2024-01-25T01:43:21;59.43;43.14;74.15;;
37279;Laerm;7458;49.002;8.472;2024-01-25T01:45:49;58.03;42.09;74.12;;
37279;Laerm;7458;49.002;8.472;2024-01-25T01:48:16;59.32;41.75;74.12;;
37279;Laerm;7458;49.002;8.472;2024-01-25T01:50:45;59.85;42.47;74.17;;
37279;Laerm;7458;49.002;8.472;2024-01-25T01:53:12;60.19;42.82;74.10;;
37279;Laerm;7458;49.002;8.472;2024-01-25T01:55:38;59.16;42.09;74.20;;
37279;Laerm;7458;49.002;8.472;2024-01-25T01:58:06;56.98;42.82;74.14;;
37279;Laerm;7458;49.002;8.472;2024-01-25T02:00:32;57.04;43.19;74.14;;
37279;Laerm;7458;49.002;8.472;2024-01-25T02:02:59;58.11;41.82;74.07;;
37279;Laerm;7458;49.002;8.472;2024-01-25T02:05:25;58.70;41.96;74.04;;
37279;Laerm;7458;49.002;8.472;2024-01-25T02:07:52;58.18;42.71;74.15;;
37279;Laerm;7458;49.002;8.472;2024-01-25T02:10:19;56.45;42.09;74.22;;
37279;Laerm;7458;49.002;8.472;2024-01-25T02:12:45;58.96;40.80;74.02;;
37279;Laerm;7458;49.002;8.472;2024-01-25T02:15:11;58.55;41.46;74.24;;
37279;Laerm;7458;49.002;8.472;2024-01-25T02:17:37;59.28;41.48;74.17;;
37279;Laerm;7458;49.002;8.472;2024-01-25T02:20:05;56.71;40.62;74.28;;
37279;Laerm;7458;49.002;8.472;2024-01-25T02:22:32;59.57;42.71;74.22;;
37279;Laerm;7458;49.002;8.472;2024-01-25T02:24:58;58.28;42.98;74.30;;
37279;Laerm;7458;49.002;8.472;2024-01-25T02:27:24;58.23;42.09;74.16;;
37279;Laerm;7458;49.002;8.472;2024-01-25T02:29:50;59.66;41.89;74.26;;
37279;Laerm;7458;49.002;8.472;2024-01-25T02:32:16;58.93;42.29;74.62;;
37279;Laerm;7458;49.002;8.472;2024-01-25T02:34:42;58.40;41.89;74.29;;
37279;Laerm;7458;49.002;8.472;2024-01-25T02:37:08;59.88;42.76;74.22;;
37279;Laerm;7458;49.002;8.472;2024-01-25T02:39:34;60.75;42.53;74.31;;
37279;Laerm;7458;49.002;8.472;2024-01-25T02:42:00;58.46;41.61;74.17;;
37279;Laerm;7458;49.002;8.472;2024-01-25T02:44:26;59.78;41.96;74.09;;
37279;Laerm;7458;49.002;8.472;2024-01-25T02:46:53;58.21;42.09;74.38;;
37279;Laerm;7458;49.002;8.472;2024-01-25T02:49:18;60.07;42.76;74.10;;
37279;Laerm;7458;49.002;8.472;2024-01-25T02:51:45;59.14;41.89;74.29;;
37279;Laerm;7458;49.002;8.472;2024-01-25T02:54:11;59.38;41.96;74.16;;
37279;Laerm;7458;49.002;8.472;2024-01-25T02:56:37;60.46;41.38;74.18;;
37279;Laerm;7458;49.002;8.472;2024-01-25T02:59:03;59.83;41.61;74.28;;
37279;Laerm;7458;49.002;8.472;2024-01-25T03:01:39;59.69;42.93;74.25;;
37279;Laerm;7458;49.002;8.472;2024-01-25T03:04:05;59.96;42.47;74.17;;
37279;Laerm;7458;49.002;8.472;2024-01-25T03:06:31;60.43;42.82;74.27;;
37279;Laerm;7458;49.002;8.472;2024-01-25T03:08:57;60.23;43.29;74.20;;
37279;Laerm;7458;49.002;8.472;2024-01-25T03:11:24;59.97;43.04;74.25;;
37279;Laerm;7458;49.002;8.472;2024-01-25T03:13:50;60.04;43.68;74.09;;
37279;Laerm;7458;49.002;8.472;2024-01-25T03:16:16;60.82;42.71;74.36;;
37279;Laerm;7458;49.002;8.472;2024-01-25T03:18:42;60.87;42.71;74.37;;
37279;Laerm;7458;49.002;8.472;2024-01-25T03:21:08;61.12;43.44;74.37;;
37279;Laerm;7458;49.002;8.472;2024-01-25T03:23:34;60.56;43.58;74.27;;
37279;Laerm;7458;49.002;8.472;2024-01-25T03:26:02;60.96;43.09;74.28;;
37279;Laerm;7458;49.002;8.472;2024-01-25T03:28:28;60.69;43.39;74.06;;
37279;Laerm;7458;49.002;8.472;2024-01-25T03:30:54;60.32;43.81;74.16;;
37279;Laerm;7458;49.002;8.472;2024-01-25T03:33:20;60.74;43.81;74.06;;
37279;Laerm;7458;49.002;8.472;2024-01-25T03:35:46;59.09;44.35;74.08;;
37279;Laerm;7458;49.002;8.472;2024-01-25T03:38:12;60.20;44.19;74.11;;
37279;Laerm;7458;49.002;8.472;2024-01-25T03:40:39;60.64;43.94;74.13;;
37279;Laerm;7458;49.002;8.472;2024-01-25T03:43:05;60.95;44.43;74.26;;
37279;Laerm;7458;49.002;8.472;2024-01-25T03:45:32;60.80;44.65;74.06;;
37279;Laerm;7458;49.002;8.472;2024-01-25T03:47:58;60.91;44.19;74.02;;
37279;Laerm;7458;49.002;8.472;2024-01-25T03:50:24;61.23;44.16;74.27;;
37279;Laerm;7458;49.002;8.472;2024-01-25T03:52:50;60.19;43.72;74.12;;
37279;Laerm;7458;49.002;8.472;2024-01-25T03:55:17;60.50;44.11;74.27;;
37279;Laerm;7458;49.002;8.472;2024-01-25T03:57:44;60.50;44.19;74.18;;
37279;Laerm;7458;49.002;8.472;2024-01-25T04:00:11;60.80;44.11;74.13;;
37279;Laerm;7458;49.002;8.472;2024-01-25T04:02:37;60.51;44.80;74.27;;
37279;Laerm;7458;49.002;8.472;2024-01-25T04:05:04;61.03;43.68;74.28;;
37279;Laerm;7458;49.002;8.472;2024-01-25T04:07:30;60.99;44.58;74.18;;
37279;Laerm;7458;49.002;8.472;2024-01-25T04:09:56;59.29;44.54;74.00;;
37279;Laerm;7458;49.002;8.472;2024-01-25T04:12:21;59.61;44.94;74.20;;
37279;Laerm;7458;49.002;8.472;2024-01-25T04:14:47;60.89;44.47;74.18;;
37279;Laerm;7458;49.002;8.472;2024-01-25T04:17:13;59.68;44.27;74.21;;
37279;Laerm;7458;49.002;8.472;2024-01-25T04:19:39;59.61;43.94;74.08;;
37279;Laerm;7458;49.002;8.472;2024-01-25T04:22:05;60.36;44.07;74.26;;
37279;Laerm;7458;49.002;8.472;2024-01-25T04:24:31;61.20;44.39;74.41;;
37279;Laerm;7458;49.002;8.472;2024-01-25T04:26:57;61.89;44.54;74.25;;
37279;Laerm;7458;49.002;8.472;2024-01-25T04:29:23;61.57;45.48;76.37;;
37279;Laerm;7458;49.002;8.472;2024-01-25T04:31:49;59.78;44.90;74.25;;
37279;Laerm;7458;49.002;8.472;2024-01-25T04:34:16;60.70;44.69;74.19;;
37279;Laerm;7458;49.002;8.472;2024-01-25T04:36:42;60.78;44.95;74.27;;
37279;Laerm;7458;49.002;8.472;2024-01-25T04:39:09;61.07;45.14;74.00;;
37279;Laerm;7458;49.002;8.472;2024-01-25T04:41:35;61.01;44.62;74.44;;
37279;Laerm;7458;49.002;8.472;2024-01-25T04:44:02;60.89;45.36;74.20;;
37279;Laerm;7458;49.002;8.472;2024-01-25T04:46:28;61.12;44.62;73.96;;
37279;Laerm;7458;49.002;8.472;2024-01-25T04:48:55;61.62;45.86;74.16;;
37279;Laerm;7458;49.002;8.472;2024-01-25T04:51:22;61.48;45.14;73.93;;
37279;Laerm;7458;49.002;8.472;2024-01-25T04:53:48;60.94;45.45;77.11;;
37279;Laerm;7458;49.002;8.472;2024-01-25T04:56:14;61.17;44.97;74.20;;
37279;Laerm;7458;49.002;8.472;2024-01-25T04:58:40;60.39;44.62;74.04;;
37279;Laerm;7458;49.002;8.472;2024-01-25T05:01:06;60.11;44.83;74.02;;
37279;Laerm;7458;49.002;8.472;2024-01-25T05:03:33;61.66;44.35;73.95;;
37279;Laerm;7458;49.002;8.472;2024-01-25T05:05:59;60.87;44.39;74.06;;
37279;Laerm;7458;49.002;8.472;2024-01-25T05:08:26;60.64;43.58;73.90;;
37279;Laerm;7458;49.002;8.472;2024-01-25T05:10:52;60.89;44.27;73.96;;
37279;Laerm;7458;49.002;8.472;2024-01-25T05:13:19;60.92;44.31;73.90;;
37279;Laerm;7458;49.002;8.472;2024-01-25T05:15:44;60.88;43.77;74.23;;
37279;Laerm;7458;49.002;8.472;2024-01-25T05:18:10;60.73;44.90;73.82;;
37279;Laerm;7458;49.002;8.472;2024-01-25T05:20:36;60.72;44.07;74.07;;
37279;Laerm;7458;49.002;8.472;2024-01-25T05:23:03;61.60;44.69;74.09;;
37279;Laerm;7458;49.002;8.472;2024-01-25T05:25:30;60.85;44.39;74.02;;
37279;Laerm;7458;49.002;8.472;2024-01-25T05:27:57;61.34;44.03;73.92;;
37279;Laerm;7458;49.002;8.472;2024-01-25T05:30:24;61.76;44.27;75.55;;
37279;Laerm;7458;49.002;8.472;2024-01-25T05:32:50;61.06;44.11;74.36;;
37279;Laerm;7458;49.002;8.472;2024-01-25T05:35:16;60.86;44.03;73.81;;
37279;Laerm;7458;49.002;8.472;2024-01-25T05:37:43;61.89;43.44;77.18;;
37279;Laerm;7458;49.002;8.472;2024-01-25T05:40:10;61.34;42.93;74.86;;
37279;Laerm;7458;49.002;8.472;2024-01-25T05:42:36;63.14;44.15;78.03;;
37279;Laerm;7458;49.002;8.472;2024-01-25T05:45:05;61.01;43.80;73.91;;
37279;Laerm;7458;49.002;8.472;2024-01-25T05:47:31;60.43;44.19;74.10;;
37279;Laerm;7458;49.002;8.472;2024-01-25T05:49:58;60.97;44.15;75.16;;
37279;Laerm;7458;49.002;8.472;2024-01-25T05:52:24;60.01;44.69;74.12;;
37279;Laerm;7458;49.002;8.472;2024-01-25T05:54:50;61.37;45.33;73.97;;
37279;Laerm;7458;49.002;8.472;2024-01-25T05:57:16;61.36;45.63;73.78;;
37279;Laerm;7458;49.002;8.472;2024-01-25T05:59:45;60.99;46.10;73.97;;
37279;Laerm;7458;49.002;8.472;2024-01-25T06:02:12;61.36;46.15;73.85;;
37279;Laerm;7458;49.002;8.472;2024-01-25T06:04:39;62.33;46.52;74.34;;
37279;Laerm;7458;49.002;8.472;2024-01-25T06:07:04;61.32;46.38;73.37;;
37279;Laerm;7458;49.002;8.472;2024-01-25T06:09:30;61.76;46.38;73.78;;
37279;Laerm;7458;49.002;8.472;2024-01-25T06:11:58;61.69;46.25;73.93;;
37279;Laerm;7458;49.002;8.472;2024-01-25T06:14:24;63.50;47.34;76.61;;
37279;Laerm;7458;49.002;8.472;2024-01-25T06:16:50;62.23;46.33;74.07;;
37279;Laerm;7458;49.002;8.472;2024-01-25T06:19:15;62.08;46.69;74.01;;
37279;Laerm;7458;49.002;8.472;2024-01-25T06:21:41;61.48;45.97;73.62;;
37279;Laerm;7458;49.002;8.472;2024-01-25T06:24:07;62.19;46.40;73.92;;
37279;Laerm;7458;49.002;8.472;2024-01-25T06:26:33;62.08;47.16;73.86;;
37279;Laerm;7458;49.002;8.472;2024-01-25T06:28:59;62.52;47.02;74.73;;
37279;Laerm;7458;49.002;8.472;2024-01-25T06:31:25;62.07;46.45;73.89;;
37279;Laerm;7458;49.002;8.472;2024-01-25T06:33:51;62.74;47.14;74.23;;
37279;Laerm;7458;49.002;8.472;2024-01-25T06:36:22;62.87;45.75;74.44;;
37279;Laerm;7458;49.002;8.472;2024-01-25T06:38:48;62.95;46.55;74.63;;
37279;Laerm;7458;49.002;8.472;2024-01-25T06:41:14;62.44;46.25;73.43;;
37279;Laerm;7458;49.002;8.472;2024-01-25T06:43:43;63.90;45.48;80.81;;
37279;Laerm;7458;49.002;8.472;2024-01-25T06:46:09;62.43;45.01;75.16;;
37279;Laerm;7458;49.002;8.472;2024-01-25T06:48:34;61.91;44.90;73.94;;
37279;Laerm;7458;49.002;8.472;2024-01-25T06:51:01;62.42;45.33;75.79;;
37279;Laerm;7458;49.002;8.472;2024-01-25T06:53:28;62.47;45.23;75.75;;
37279;Laerm;7458;49.002;8.472;2024-01-25T06:55:54;62.81;45.45;79.46;;
37279;Laerm;7458;49.002;8.472;2024-01-25T06:58:20;63.27;46.57;76.82;;
37279;Laerm;7458;49.002;8.472;2024-01-25T07:00:46;62.88;45.11;77.73;;
37279;Laerm;7458;49.002;8.472;2024-01-25T07:03:13;61.88;45.60;73.68;;
37279;Laerm;7458;49.002;8.472;2024-01-25T07:05:39;62.05;46.20;73.55;;
37279;Laerm;7458;49.002;8.472;2024-01-25T07:08:05;61.54;45.69;73.42;;
37279;Laerm;7458;49.002;8.472;2024-01-25T07:10:32;62.31;46.20;73.24;;
37279;Laerm;7458;49.002;8.472;2024-01-25T07:12:58;61.91;45.99;74.00;;
37279;Laerm;7458;49.002;8.472;2024-01-25T07:15:24;61.50;46.15;73.30;;
37279;Laerm;7458;49.002;8.472;2024-01-25T07:17:51;61.38;45.27;73.30;;
37279;Laerm;7458;49.002;8.472;2024-01-25T07:20:17;62.17;47.16;73.19;;
37279;Laerm;7458;49.002;8.472;2024-01-25T07:22:43;61.96;45.14;73.45;;
37279;Laerm;7458;49.002;8.472;2024-01-25T07:25:09;62.92;45.17;73.46;;
37279;Laerm;7458;49.002;8.472;2024-01-25T07:27:35;61.99;44.83;73.40;;
37279;Laerm;7458;49.002;8.472;2024-01-25T07:30:02;61.94;44.27;73.58;;
37279;Laerm;7458;49.002;8.472;2024-01-25T07:32:27;61.74;44.27;73.57;;
37279;Laerm;7458;49.002;8.472;2024-01-25T07:34:53;61.51;44.39;73.31;;
37279;Laerm;7458;49.002;8.472;2024-01-25T07:37:20;63.03;44.51;79.91;;
37279;Laerm;7458;49.002;8.472;2024-01-25T07:39:46;61.44;45.07;73.39;;
37279;Laerm;7458;49.002;8.472;2024-01-25T07:42:12;61.38;45.30;73.61;;
37279;Laerm;7458;49.002;8.472;2024-01-25T07:44:38;62.26;46.18;73.26;;
37279;Laerm;7458;49.002;8.472;2024-01-25T07:47:04;61.33;45.39;73.46;;
37279;Laerm;7458;49.002;8.472;2024-01-25T07:49:31;61.35;46.98;73.56;;
37279;Laerm;7458;49.002;8.472;2024-01-25T07:51:57;62.74;46.15;74.36;;
37279;Laerm;7458;49.002;8.472;2024-01-25T07:54:23;61.53;45.54;73.81;;
37279;Laerm;7458;49.002;8.472;2024-01-25T07:56:50;62.47;45.66;74.67;;
37279;Laerm;7458;49.002;8.472;2024-01-25T07:59:16;61.32;45.51;73.29;;
37279;Laerm;7458;49.002;8.472;2024-01-25T08:01:42;61.80;44.90;73.24;;
37279;Laerm;7458;49.002;8.472;2024-01-25T08:04:08;61.74;44.39;76.77;;
37279;Laerm;7458;49.002;8.472;2024-01-25T08:06:34;62.01;44.76;73.75;;
37279;Laerm;7458;49.002;8.472;2024-01-25T08:09:00;61.60;44.15;77.52;;
37279;Laerm;7458;49.002;8.472;2024-01-25T08:11:27;61.66;44.15;80.60;;
37279;Laerm;7458;49.002;8.472;2024-01-25T08:13:53;60.76;44.07;73.69;;
37279;Laerm;7458;49.002;8.472;2024-01-25T08:16:19;61.69;43.72;75.66;;
37279;Laerm;7458;49.002;8.472;2024-01-25T08:18:47;62.46;44.47;83.46;;
37279;Laerm;7458;49.002;8.472;2024-01-25T08:21:13;61.00;44.38;74.03;;
37279;Laerm;7458;49.002;8.472;2024-01-25T08:23:39;62.49;44.90;75.80;;
37279;Laerm;7458;49.002;8.472;2024-01-25T08:26:05;60.89;45.23;73.94;;
37279;Laerm;7458;49.002;8.472;2024-01-25T08:28:35;60.39;44.69;73.91;;
37279;Laerm;7458;49.002;8.472;2024-01-25T08:31:02;60.64;44.58;74.03;;
37279;Laerm;7458;49.002;8.472;2024-01-25T08:33:28;60.08;45.30;74.09;;
37279;Laerm;7458;49.002;8.472;2024-01-25T08:35:54;61.83;45.97;75.23;;
37279;Laerm;7458;49.002;8.472;2024-01-25T08:38:20;61.26;44.39;74.03;;
37279;Laerm;7458;49.002;8.472;2024-01-25T08:40:46;61.77;45.17;74.18;;
37279;Laerm;7458;49.002;8.472;2024-01-25T08:43:12;61.05;44.90;74.10;;
37279;Laerm;7458;49.002;8.472;2024-01-25T08:45:38;61.38;44.90;74.09;;
37279;Laerm;7458;49.002;8.472;2024-01-25T08:48:05;62.58;46.02;74.57;;
37279;Laerm;7458;49.002;8.472;2024-01-25T08:50:31;62.01;45.72;73.99;;
37279;Laerm;7458;49.002;8.472;2024-01-25T08:52:59;61.76;44.43;74.12;;
37279;Laerm;7458;49.002;8.472;2024-01-25T08:55:25;61.29;44.58;73.98;;
37279;Laerm;7458;49.002;8.472;2024-01-25T08:57:52;60.42;43.54;74.06;;
37279;Laerm;7458;49.002;8.472;2024-01-25T09:00:18;60.62;43.14;74.14;;
37279;Laerm;7458;49.002;8.472;2024-01-25T09:02:44;61.16;43.24;77.35;;
37279;Laerm;7458;49.002;8.472;2024-01-25T09:05:10;60.48;43.68;74.15;;
37279;Laerm;7458;49.002;8.472;2024-01-25T09:07:37;61.15;43.24;74.10;;
37279;Laerm;7458;49.002;8.472;2024-01-25T09:10:04;61.78;44.15;75.85;;
37279;Laerm;7458;49.002;8.472;2024-01-25T09:12:35;62.34;44.47;74.40;;
37279;Laerm;7458;49.002;8.472;2024-01-25T09:15:01;62.11;44.23;74.65;;
37279;Laerm;7458;49.002;8.472;2024-01-25T09:17:27;61.43;44.23;74.31;;
37279;Laerm;7458;49.002;8.472;2024-01-25T09:19:54;59.52;44.31;74.29;;
37279;Laerm;7458;49.002;8.472;2024-01-25T09:22:20;59.73;44.11;74.32;;
37279;Laerm;7458;49.002;8.472;2024-01-25T09:24:47;60.64;45.94;74.45;;
37279;Laerm;7458;49.002;8.472;2024-01-25T09:27:13;60.67;44.58;74.34;;
37279;Laerm;7458;49.002;8.472;2024-01-25T09:29:41;60.89;45.57;74.45;;
37279;Laerm;7458;49.002;8.472;2024-01-25T09:32:08;62.77;46.02;82.13;;
37279;Laerm;7458;49.002;8.472;2024-01-25T09:34:38;61.44;44.19;74.61;;
37279;Laerm;7458;49.002;8.472;2024-01-25T09:37:04;62.11;43.86;86.34;;
37279;Laerm;7458;49.002;8.472;2024-01-25T09:39:33;63.00;43.49;79.63;;
37279;Laerm;7458;49.002;8.472;2024-01-25T09:42:02;64.08;48.92;81.82;;
37279;Laerm;7458;49.002;8.472;2024-01-25T09:44:28;60.07;42.98;78.87;;
37279;Laerm;7458;49.002;8.472;2024-01-25T09:46:55;53.73;43.39;73.85;;
37279;Laerm;7458;49.002;8.472;2024-01-25T09:49:21;57.81;44.69;73.58;;
37279;Laerm;7458;49.002;8.472;2024-01-25T09:51:50;55.78;43.49;73.86;;
37279;Laerm;7458;49.002;8.472;2024-01-25T09:54:16;54.71;43.63;73.81;;
37279;Laerm;7458;49.002;8.472;2024-01-25T09:56:43;61.08;43.86;79.71;;
37279;Laerm;7458;49.002;8.472;2024-01-25T09:59:09;51.88;43.77;66.32;;
37279;Laerm;7458;49.002;8.472;2024-01-25T10:01:35;55.06;44.69;68.61;;
37279;Laerm;7458;49.002;8.472;2024-01-25T10:04:01;61.65;46.57;80.53;;
37279;Laerm;7458;49.002;8.472;2024-01-25T10:06:27;55.02;46.20;70.52;;
37279;Laerm;7458;49.002;8.472;2024-01-25T10:08:53;57.01;46.20;73.03;;
37279;Laerm;7458;49.002;8.472;2024-01-25T10:11:19;54.25;45.27;70.82;;
37279;Laerm;7458;49.002;8.472;2024-01-25T10:13:47;62.67;44.73;77.86;;
37279;Laerm;7458;49.002;8.472;2024-01-25T10:16:16;56.83;44.27;68.06;;
37279;Laerm;7458;49.002;8.472;2024-01-25T10:18:44;58.76;45.89;82.96;;
37279;Laerm;7458;49.002;8.472;2024-01-25T10:21:12;64.58;47.54;91.82;;
37279;Laerm;7458;49.002;8.472;2024-01-25T10:23:39;57.41;45.27;71.56;;
37279;Laerm;7458;49.002;8.472;2024-01-25T10:26:05;60.72;46.54;78.03;;
37279;Laerm;7458;49.002;8.472;2024-01-25T10:28:31;59.70;46.33;76.97;;
37279;Laerm;7458;49.002;8.472;2024-01-25T10:31:01;57.67;45.33;71.73;;
37279;Laerm;7458;49.002;8.472;2024-01-25T10:33:28;58.68;43.72;74.41;;
37279;Laerm;7458;49.002;8.472;2024-01-25T10:35:59;61.77;45.04;78.17;;
37279;Laerm;7458;49.002;8.472;2024-01-25T10:38:33;55.75;45.57;75.80;;
37279;Laerm;7458;49.002;8.472;2024-01-25T10:41:05;51.55;42.82;67.50;;
37279;Laerm;7458;49.002;8.472;2024-01-25T10:43:32;50.95;43.14;64.75;;
37279;Laerm;7458;49.002;8.472;2024-01-25T10:45:59;53.27;43.09;70.91;;
37279;Laerm;7458;49.002;8.472;2024-01-25T10:48:25;59.13;43.34;75.66;;
37279;Laerm;7458;49.002;8.472;2024-01-25T10:50:55;58.50;44.54;79.49;;
37279;Laerm;7458;49.002;8.472;2024-01-25T10:53:23;58.91;43.72;80.97;;
37279;Laerm;7458;49.002;8.472;2024-01-25T10:55:50;65.87;45.48;84.61;;
37279;Laerm;7458;49.002;8.472;2024-01-25T10:58:17;65.38;45.54;84.03;;
37279;Laerm;7458;49.002;8.472;2024-01-25T11:00:54;55.94;43.34;84.56;;
37279;Laerm;7458;49.002;8.472;2024-01-25T11:03:29;56.32;42.76;73.31;;
37279;Laerm;7458;49.002;8.472;2024-01-25T11:06:11;60.15;43.14;75.36;;
37279;Laerm;7458;49.002;8.472;2024-01-25T11:08:38;55.54;43.58;72.18;;
37279;Laerm;7458;49.002;8.472;2024-01-25T11:11:13;55.17;43.54;69.54;;
37279;Laerm;7458;49.002;8.472;2024-01-25T11:13:43;54.87;43.86;69.19;;
37279;Laerm;7458;49.002;8.472;2024-01-25T11:16:16;53.82;44.39;66.13;;
37279;Laerm;7458;49.002;8.472;2024-01-25T11:18:54;51.22;43.86;64.25;;
37279;Laerm;7458;49.002;8.472;2024-01-25T11:21:29;57.80;45.48;76.45;;
37279;Laerm;7458;49.002;8.472;2024-01-25T11:24:04;58.03;44.47;73.04;;
37279;Laerm;7458;49.002;8.472;2024-01-25T11:26:32;57.23;44.19;71.41;;
37279;Laerm;7458;49.002;8.472;2024-01-25T11:28:58;57.43;43.34;73.41;;
37279;Laerm;7458;49.002;8.472;2024-01-25T11:31:27;54.54;42.71;70.01;;
37279;Laerm;7458;49.002;8.472;2024-01-25T11:34:00;57.20;42.98;76.07;;
37279;Laerm;7458;49.002;8.472;2024-01-25T11:36:27;57.65;43.90;71.70;;
37279;Laerm;7458;49.002;8.472;2024-01-25T11:38:53;55.56;44.62;69.32;;
37279;Laerm;7458;49.002;8.472;2024-01-25T11:41:20;59.10;44.15;73.35;;
37279;Laerm;7458;49.002;8.472;2024-01-25T11:43:48;58.75;44.07;71.71;;
37279;Laerm;7458;49.002;8.472;2024-01-25T11:46:15;56.55;43.49;72.13;;
37279;Laerm;7458;49.002;8.472;2024-01-25T11:48:41;51.99;42.71;69.23;;
37279;Laerm;7458;49.002;8.472;2024-01-25T11:51:09;55.12;44.90;69.28;;
37279;Laerm;7458;49.002;8.472;2024-01-25T11:53:37;57.04;44.31;71.93;;
37279;Laerm;7458;49.002;8.472;2024-01-25T11:56:06;56.45;44.94;72.22;;
37279;Laerm;7458;49.002;8.472;2024-01-25T11:58:34;56.86;44.94;74.53;;
37279;Laerm;7458;49.002;8.472;2024-01-25T12:01:02;53.78;44.69;68.40;;
37279;Laerm;7458;49.002;8.472;2024-01-25T12:03:32;57.73;45.77;76.69;;
37279;Laerm;7458;49.002;8.472;2024-01-25T12:05:59;54.18;44.07;69.60;;
37279;Laerm;7458;49.002;8.472;2024-01-25T12:08:25;52.33;44.80;67.58;;
37279;Laerm;7458;49.002;8.472;2024-01-25T12:11:06;55.54;44.97;74.06;;
37279;Laerm;7458;49.002;8.472;2024-01-25T12:13:39;55.04;44.31;71.81;;
37279;Laerm;7458;49.002;8.472;2024-01-25T12:16:06;59.56;44.43;79.00;;
37279;Laerm;7458;49.002;8.472;2024-01-25T12:18:33;58.19;44.83;76.30;;
37279;Laerm;7458;49.002;8.472;2024-01-25T12:21:04;58.65;44.11;84.13;;
37279;Laerm;7458;49.002;8.472;2024-01-25T12:23:40;53.62;43.81;66.77;;
37279;Laerm;7458;49.002;8.472;2024-01-25T12:26:07;53.79;44.73;66.09;;
37279;Laerm;7458;49.002;8.472;2024-01-25T12:28:34;54.19;44.62;65.58;;
37279;Laerm;7458;49.002;8.472;2024-01-25T12:31:01;54.38;44.39;66.01;;
37279;Laerm;7458;49.002;8.472;2024-01-25T12:33:29;52.60;44.31;66.36;;
37279;Laerm;7458;49.002;8.472;2024-01-25T12:35:55;58.64;43.34;77.88;;
37279;Laerm;7458;49.002;8.472;2024-01-25T12:38:22;52.78;42.98;65.38;;
37279;Laerm;7458;49.002;8.472;2024-01-25T12:40:49;53.90;44.47;67.97;;
37279;Laerm;7458;49.002;8.472;2024-01-25T12:43:16;59.43;45.75;75.40;;
37279;Laerm;7458;49.002;8.472;2024-01-25T12:45:42;56.81;44.35;69.37;;
37279;Laerm;7458;49.002;8.472;2024-01-25T12:48:08;53.72;44.69;68.88;;
37279;Laerm;7458;49.002;8.472;2024-01-25T12:50:36;54.53;42.65;75.29;;
37279;Laerm;7458;49.002;8.472;2024-01-25T12:53:02;57.22;43.90;69.56;;
37279;Laerm;7458;49.002;8.472;2024-01-25T12:55:30;57.50;46.30;69.51;;
37279;Laerm;7458;49.002;8.472;2024-01-25T12:57:57;56.74;45.23;70.87;;
37279;Laerm;7458;49.002;8.472;2024-01-25T13:00:24;63.17;45.72;80.93;;
37279;Laerm;7458;49.002;8.472;2024-01-25T13:02:50;59.54;45.33;75.35;;
37279;Laerm;7458;49.002;8.472;2024-01-25T13:05:16;57.59;45.20;73.10;;
37279;Laerm;7458;49.002;8.472;2024-01-25T13:07:42;60.82;45.11;75.98;;
37279;Laerm;7458;49.002;8.472;2024-01-25T13:10:11;56.55;45.07;69.68;;
37279;Laerm;7458;49.002;8.472;2024-01-25T13:12:38;60.23;44.19;80.58;;
37279;Laerm;7458;49.002;8.472;2024-01-25T13:15:05;58.89;45.11;74.53;;
37279;Laerm;7458;49.002;8.472;2024-01-25T13:17:31;57.09;44.39;73.44;;
37279;Laerm;7458;49.002;8.472;2024-01-25T13:20:00;58.28;45.39;75.08;;
37279;Laerm;7458;49.002;8.472;2024-01-25T13:22:26;57.63;44.65;84.35;;
37279;Laerm;7458;49.002;8.472;2024-01-25T13:24:53;58.92;44.94;83.79;;
37279;Laerm;7458;49.002;8.472;2024-01-25T13:27:19;56.78;44.15;71.07;;
37279;Laerm;7458;49.002;8.472;2024-01-25T13:29:45;59.41;44.43;74.67;;
37279;Laerm;7458;49.002;8.472;2024-01-25T13:32:11;61.44;45.57;78.95;;
37279;Laerm;7458;49.002;8.472;2024-01-25T13:34:37;59.17;44.58;76.13;;
37279;Laerm;7458;49.002;8.472;2024-01-25T13:37:03;59.37;49.21;69.23;;
37279;Laerm;7458;49.002;8.472;2024-01-25T13:39:29;57.29;46.78;78.97;;
37279;Laerm;7458;49.002;8.472;2024-01-25T13:41:56;58.24;46.35;70.90;;
37279;Laerm;7458;49.002;8.472;2024-01-25T13:44:24;56.03;43.99;70.57;;
37279;Laerm;7458;49.002;8.472;2024-01-25T13:46:50;56.17;44.35;69.19;;
37279;Laerm;7458;49.002;8.472;2024-01-25T13:49:16;56.32;45.75;68.88;;
37279;Laerm;7458;49.002;8.472;2024-01-25T13:51:44;56.57;44.69;68.70;;
37279;Laerm;7458;49.002;8.472;2024-01-25T13:54:10;53.11;43.49;73.62;;